Time;durP1;ratioP1;P1;durP2;ratioP2;P2;SDS_P1;SDS_P2;PMS_P1;PMS_P2;Temp;Humidity;BMP_temperature;BMP_pressure;BME280_temperature;BME280_humidity;BME280_pressure;Samples;Min_cycle;Max_cycle;Signal;HPM_P1;HPM_P2
2022/03/02 18:59:28;;;;;;;61.05;28.27;;;;;;;1.83;57.14;101660.84;6216654;22;1340498;-68
2022/03/02 19:02:03;;;;;;;62.33;27.35;;;;;;;1.81;57.16;101661.59;6274665;22;20027;-69
2022/03/02 19:04:31;;;;;;;51.45;24.27;;;;;;;1.78;56.92;101654.66;6274042;22;20534;-70
2022/03/02 19:06:58;;;;;;;51.70;24.85;;;;;;;1.76;57.00;101652.84;6274355;22;20020;-69
2022/03/02 19:09:27;;;;;;;53.40;25.30;;;;;;;1.73;56.85;101643.38;6274327;22;20460;-71
2022/03/02 19:11:57;;;;;;;45.97;23.52;;;;;;;1.73;56.87;101642.50;6274260;22;20023;-69
2022/03/02 19:14:23;;;;;;;48.05;25.83;;;;;;;1.71;56.72;101639.88;6273980;22;20074;-69
2022/03/02 19:16:52;;;;;;;58.97;29.10;;;;;;;1.71;56.75;101634.78;6273902;22;20023;-71
2022/03/02 19:19:20;;;;;;;68.82;32.40;;;;;;;1.69;56.83;101636.41;6274384;22;20487;-69
2022/03/02 19:21:57;;;;;;;62.65;31.02;;;;;;;1.67;57.11;101638.00;6273810;22;20031;-69
2022/03/02 19:24:26;;;;;;;58.92;28.10;;;;;;;1.65;56.74;101634.53;6274392;22;20504;-71
2022/03/02 19:26:54;;;;;;;50.28;26.35;;;;;;;1.64;56.81;101637.88;6273805;22;20020;-70
2022/03/02 19:29:24;;;;;;;55.67;26.13;;;;;;;1.65;56.91;101644.75;6273824;22;20016;-71
2022/03/02 19:32:07;;;;;;;59.42;29.00;;;;;;;1.61;57.01;101642.88;6273862;22;20055;-72
2022/03/02 19:34:46;;;;;;;72.50;28.33;;;;;;;1.56;57.56;101640.13;6273299;22;20023;-72
2022/03/02 19:37:14;;;;;;;65.05;31.85;;;;;;;1.55;57.12;101647.69;6273287;22;20019;-69
2022/03/02 19:40:12;;;;;;;65.13;29.35;;;;;;;1.54;57.30;101643.38;6273711;22;20028;-75
2022/03/02 19:42:48;;;;;;;64.38;30.73;;;;;;;1.51;57.20;101641.59;6273295;22;20457;-68
2022/03/02 19:45:43;;;;;;;66.15;24.67;;;;;;;1.48;57.99;101640.56;6273356;22;20020;-70
2022/03/02 19:48:18;;;;;;;56.33;29.55;;;;;;;1.42;57.57;101636.09;6272971;22;20028;-73
2022/03/02 19:50:58;;;;;;;62.63;27.30;;;;;;;1.44;57.85;101633.59;6273302;22;20024;-70
2022/03/02 19:53:42;;;;;;;57.97;28.55;;;;;;;1.42;57.64;101637.75;6273774;22;20031;-69
2022/03/02 19:56:30;;;;;;;56.55;27.92;;;;;;;1.40;57.77;101639.38;6273384;22;20069;-72
2022/03/02 19:59:02;;;;;;;62.90;30.70;;;;;;;1.37;57.99;101642.69;6294645;22;20027;-70
2022/03/02 20:01:32;;;;;;;83.75;35.45;;;;;;;1.33;57.83;101639.94;6304355;22;20116;-70
2022/03/02 20:04:08;;;;;;;82.10;34.38;;;;;;;1.30;58.33;101644.91;6304358;22;20221;-73
2022/03/02 20:06:38;;;;;;;59.63;28.45;;;;;;;1.28;58.06;101637.19;6304583;22;20460;-68
2022/03/02 20:09:05;;;;;;;63.35;31.30;;;;;;;1.22;58.51;101632.69;6304406;22;20051;-72
2022/03/02 20:11:35;;;;;;;61.53;29.77;;;;;;;1.19;58.18;101634.22;6303025;22;20483;-69
2022/03/02 20:14:08;;;;;;;59.15;28.17;;;;;;;1.14;58.32;101628.91;6303121;22;20019;-74
2022/03/02 20:16:46;;;;;;;83.15;34.17;;;;;;;1.13;58.33;101621.19;6304061;22;20055;-71
2022/03/02 20:19:23;;;;;;;68.15;33.65;;;;;;;1.07;58.51;101615.81;6304621;22;20457;-73
2022/03/02 20:21:57;;;;;;;84.97;35.50;;;;;;;1.03;58.75;101619.88;6303746;22;20023;-70
2022/03/02 20:24:42;;;;;;;82.03;35.35;;;;;;;0.99;59.02;101618.00;6303874;22;20480;-70
2022/03/02 20:27:18;;;;;;;96.53;39.67;;;;;;;0.90;59.58;101617.59;6304352;22;20457;-69
2022/03/02 20:29:45;;;;;;;98.57;42.75;;;;;;;0.81;60.24;101627.41;6303115;22;20023;-74
2022/03/02 20:32:23;;;;;;;87.35;39.40;;;;;;;0.75;60.30;101627.13;6303990;22;20491;-68
2022/03/02 20:34:58;;;;;;;74.65;33.65;;;;;;;0.71;60.70;101630.34;6303848;22;20023;-69
2022/03/02 20:37:25;;;;;;;81.40;36.40;;;;;;;0.68;60.44;101625.97;6303916;22;20114;-73
2022/03/02 20:39:58;;;;;;;83.78;38.47;;;;;;;0.66;60.57;101622.47;6302670;22;20099;-70
2022/03/02 20:42:35;;;;;;;80.45;37.50;;;;;;;0.66;60.69;101627.56;6303317;22;20019;-73
2022/03/02 20:45:15;;;;;;;69.97;33.13;;;;;;;0.65;60.77;101614.75;6306524;22;20066;-73
2022/03/02 20:47:44;;;;;;;74.13;36.97;;;;;;;0.62;60.80;101612.94;6306261;22;20027;-71
2022/03/02 20:50:16;;;;;;;67.90;36.65;;;;;;;0.59;61.06;101607.69;6306300;22;20015;-70
2022/03/02 20:52:55;;;;;;;65.35;34.85;;;;;;;0.60;61.41;101610.31;6303717;22;20019;-75
2022/03/02 20:55:28;;;;;;;81.47;42.00;;;;;;;0.58;61.50;101604.28;6302366;22;20055;-71
2022/03/02 20:58:25;;;;;;;75.22;37.17;;;;;;;0.57;62.07;101607.63;6301867;22;20023;-71
2022/03/02 21:01:21;;;;;;;80.82;43.58;;;;;;;0.56;62.76;101610.09;6303761;22;20457;-71
2022/03/02 21:04:06;;;;;;;79.45;41.20;;;;;;;0.52;63.30;101604.00;6303828;22;20038;-75
2022/03/02 21:06:37;;;;;;;69.43;33.90;;;;;;;0.54;62.67;101617.69;6301290;22;20023;-72
2022/03/02 21:09:06;;;;;;;64.50;32.78;;;;;;;0.53;62.85;101610.84;6303151;22;20024;-72
2022/03/02 21:11:36;;;;;;;67.60;32.95;;;;;;;0.52;63.03;101609.09;6302687;22;20031;-70
2022/03/02 21:14:08;;;;;;;64.10;31.63;;;;;;;0.49;63.36;101606.38;6302117;22;20098;-70
2022/03/02 21:16:37;;;;;;;66.82;35.75;;;;;;;0.46;64.19;101600.25;6303175;22;20030;-70
2022/03/02 21:19:04;;;;;;;76.28;39.00;;;;;;;0.44;65.37;101599.31;6303287;22;20057;-73
2022/03/02 21:21:33;;;;;;;63.95;33.30;;;;;;;0.41;66.07;101589.84;6303586;22;20025;-69
2022/03/02 21:24:05;;;;;;;65.82;31.80;;;;;;;0.37;68.83;101593.06;6302669;22;20019;-73
2022/03/02 21:26:39;;;;;;;50.85;23.88;;;;;;;0.35;68.64;101594.66;6305101;22;20337;-70
2022/03/02 21:29:08;;;;;;;55.50;26.13;;;;;;;0.35;69.58;101596.34;6304493;22;20023;-68
2022/03/02 21:31:41;;;;;;;61.15;28.75;;;;;;;0.37;70.18;101600.72;6305531;22;20490;-72
2022/03/02 21:34:08;;;;;;;45.95;22.75;;;;;;;0.39;70.45;101596.56;6305052;22;20054;-72
2022/03/02 21:36:40;;;;;;;50.67;25.25;;;;;;;0.46;70.82;101597.69;6303868;22;20076;-70
2022/03/02 21:39:09;;;;;;;57.85;27.75;;;;;;;0.51;70.61;101592.00;6305219;22;20019;-69
2022/03/02 21:41:38;;;;;;;52.72;25.48;;;;;;;0.59;71.26;101584.72;6304994;22;20329;-71
2022/03/02 21:44:10;;;;;;;54.00;27.60;;;;;;;0.65;71.36;101594.34;6306413;22;20486;-73
2022/03/02 21:46:39;;;;;;;56.75;28.92;;;;;;;0.71;71.27;101600.59;6307160;22;20098;-70
2022/03/02 21:49:15;;;;;;;58.13;27.55;;;;;;;0.78;72.15;101594.06;6306136;22;20102;-70
2022/03/02 21:51:43;;;;;;;;;;;;;;;0.85;73.55;101599.53;6307568;22;20020;-70
2022/03/02 21:54:11;;;;;;;54.13;26.20;;;;;;;0.89;71.82;101595.44;6306008;22;19968;-73
2022/03/02 21:56:42;;;;;;;53.15;28.13;;;;;;;0.95;71.69;101595.69;6305782;22;20106;-72
2022/03/02 21:59:26;;;;;;;57.78;28.48;;;;;;;1.02;71.73;101587.50;6305959;22;20030;-69
2022/03/02 22:01:55;;;;;;;58.20;26.75;;;;;;;1.07;71.58;101588.59;6305786;22;20318;-68
2022/03/02 22:04:24;;;;;;;54.58;26.70;;;;;;;1.13;71.75;101590.53;6305909;22;20103;-73
2022/03/02 22:07:03;;;;;;;57.58;26.55;;;;;;;1.16;71.22;101595.78;6306562;22;20680;-69
2022/03/02 22:09:39;;;;;;;63.03;28.58;;;;;;;1.20;71.52;101595.97;6306004;22;20023;-69
2022/03/02 22:12:18;;;;;;;59.67;27.88;;;;;;;1.23;71.75;101588.44;6305581;22;20102;-70
2022/03/02 22:14:46;;;;;;;51.78;26.77;;;;;;;1.29;71.63;101584.41;6306605;22;20351;-70
2022/03/02 22:17:15;;;;;;;52.92;27.13;;;;;;;1.36;71.44;101594.94;6305156;22;20080;-70
2022/03/02 22:19:52;;;;;;;57.58;29.40;;;;;;;1.40;71.83;101583.16;6305647;22;20408;-65
2022/03/02 22:22:21;;;;;;;60.70;30.33;;;;;;;1.44;71.60;101585.03;6306082;22;20015;-68
2022/03/02 22:24:52;;;;;;;57.85;28.00;;;;;;;1.47;71.38;101582.63;6305717;22;20019;-70
2022/03/02 22:27:21;;;;;;;64.72;29.42;;;;;;;1.50;71.45;101577.63;6305868;22;20069;-70
2022/03/02 22:29:52;;;;;;;58.38;29.15;;;;;;;1.53;71.74;101583.75;6305026;22;20019;-71
2022/03/02 22:32:21;;;;;;;67.32;28.77;;;;;;;1.53;71.40;101567.53;6305584;22;20042;-71
2022/03/02 22:34:50;;;;;;;60.05;30.38;;;;;;;1.58;71.54;101571.19;6307827;22;20058;-72
2022/03/02 22:37:19;;;;;;;53.85;27.85;;;;;;;1.60;71.31;101564.47;6306558;22;20068;-70
2022/03/02 22:39:57;;;;;;;57.15;29.23;;;;;;;1.62;71.26;101557.72;6308040;22;20047;-70
2022/03/02 22:42:34;;;;;;;56.28;27.83;;;;;;;1.63;71.61;101553.47;6306810;22;20453;-69
2022/03/02 22:45:09;;;;;;;59.15;28.83;;;;;;;1.67;71.74;101561.34;6306861;22;20016;-71
2022/03/02 22:47:45;;;;;;;72.18;34.60;;;;;;;1.70;72.05;101555.47;6306470;22;20023;-69
2022/03/02 22:50:17;;;;;;;91.50;37.70;;;;;;;1.74;72.04;101552.22;6306808;22;20081;-72
2022/03/02 22:52:44;;;;;;;85.55;39.90;;;;;;;1.76;71.96;101556.59;6306603;22;20023;-70
2022/03/02 22:55:13;;;;;;;88.43;40.45;;;;;;;1.77;72.09;101548.13;6306215;22;20460;-70
2022/03/02 22:57:39;;;;;;;91.43;42.28;;;;;;;1.80;71.90;101548.22;6305277;22;20024;-69
2022/03/02 23:00:48;;;;;;;80.85;38.70;;;;;;;1.82;72.14;101551.72;6305069;22;20080;-70
2022/03/02 23:03:15;;;;;;;84.00;37.38;;;;;;;1.84;71.90;101550.09;6298668;22;20023;-71
2022/03/02 23:14:07;;;;;;;78.88;36.42;;;;;;;1.85;71.93;101531.38;6304542;22;20046;-70
2022/03/02 23:16:38;;;;;;;71.53;31.65;;;;;;;1.88;72.03;101538.31;6303837;22;20015;-72
2022/03/02 23:19:06;;;;;;;64.80;31.05;;;;;;;1.85;72.04;101525.41;6302293;22;20301;-71
2022/03/02 23:21:34;;;;;;;54.22;27.95;;;;;;;1.88;72.06;101536.63;6304944;22;20019;-74
2022/03/02 23:24:03;;;;;;;50.55;26.00;;;;;;;1.88;71.67;101531.50;6306393;22;20398;-73
2022/03/02 23:26:35;;;;;;;45.25;22.95;;;;;;;1.91;71.59;101535.88;6306225;22;20046;-73
2022/03/02 23:29:03;;;;;;;44.00;22.95;;;;;;;1.88;71.83;101531.50;6305486;22;20077;-73
2022/03/02 23:31:30;;;;;;;42.75;23.63;;;;;;;1.90;71.76;101529.00;6306618;22;20025;-73
2022/03/02 23:33:58;;;;;;;49.40;24.08;;;;;;;1.93;71.78;101526.56;6305376;22;20023;-72
2022/03/02 23:36:25;;;;;;;42.08;21.67;;;;;;;1.89;71.67;101520.47;6304552;22;20073;-70
2022/03/02 23:38:52;;;;;;;38.88;20.58;;;;;;;1.93;71.59;101530.81;6305626;22;20023;-73
2022/03/02 23:41:19;;;;;;;37.72;19.88;;;;;;;1.94;71.87;101524.91;6305326;22;20019;-74
2022/03/02 23:43:47;;;;;;;40.97;20.75;;;;;;;1.94;72.02;101525.75;6304537;22;20029;-72
2022/03/02 23:46:16;;;;;;;37.45;20.83;;;;;;;1.96;72.02;101518.16;6304696;22;20023;-73
2022/03/02 23:48:43;;;;;;;40.85;22.55;;;;;;;1.98;71.90;101521.63;6305203;22;20035;-73
2022/03/02 23:51:20;;;;;;;42.35;21.00;;;;;;;1.98;72.34;101521.63;6305870;22;20027;-72
2022/03/02 23:53:47;;;;;;;38.08;20.40;;;;;;;1.99;72.42;101520.81;6304264;22;20021;-71
2022/03/02 23:56:16;;;;;;;43.92;21.30;;;;;;;2.00;72.01;101520.00;6303600;22;20366;-69
2022/03/02 23:58:43;;;;;;;34.85;18.80;;;;;;;2.06;71.95;101517.69;6304002;22;20121;-73
